Time;durP1;ratioP1;P1;durP2;ratioP2;P2;SDS_P1;SDS_P2;PMS_P1;PMS_P2;Temp;Humidity;BMP_temperature;BMP_pressure;BME280_temperature;BME280_humidity;BME280_pressure;Samples;Min_cycle;Max_cycle;Signal;HPM_P1;HPM_P2
2022/07/17 00:00:10;;;;;;;1999.90;999.90;;;;;;;16.42;53.36;100143.75;8288262;28;20331;-79
2022/07/17 00:04:11;;;;;;;1999.90;999.90;;;;;;;16.33;55.03;100155.22;8294885;28;20463;-79
2022/07/17 00:08:13;;;;;;;1999.90;999.90;;;;;;;16.19;55.13;100155.47;8292088;28;20137;-78
2022/07/17 00:12:14;;;;;;;1999.90;999.90;;;;;;;16.08;55.10;100148.63;8288293;28;20046;-79
2022/07/17 00:16:17;;;;;;;1999.90;999.90;;;;;;;15.92;55.84;100142.75;8289464;28;20421;-78
2022/07/17 00:20:19;;;;;;;1999.90;999.90;;;;;;;15.79;56.33;100138.56;8273697;28;20129;-78
2022/07/17 00:24:21;;;;;;;1999.90;999.90;;;;;;;15.76;56.99;100128.13;8277151;28;20077;-78
2022/07/17 00:28:22;;;;;;;1999.90;999.90;;;;;;;15.64;56.69;100131.81;8295927;28;20073;-79
2022/07/17 00:32:24;;;;;;;1999.90;999.90;;;;;;;15.54;56.48;100133.63;8273705;28;20069;-78
2022/07/17 00:36:25;;;;;;;1999.90;999.90;;;;;;;15.45;56.53;100132.88;8287302;28;20683;-78
2022/07/17 00:40:27;;;;;;;1999.90;999.90;;;;;;;15.35;57.22;100126.88;8292114;28;20034;-79
2022/07/17 00:44:29;;;;;;;1999.90;999.90;;;;;;;15.28;57.61;100138.31;8294665;28;20050;-78
2022/07/17 00:48:32;;;;;;;1999.90;999.90;;;;;;;15.21;57.49;100134.88;8288733;28;20137;-79
2022/07/17 00:52:33;;;;;;;1999.90;999.90;;;;;;;15.11;57.78;100147.22;8288804;28;20047;-78
2022/07/17 00:56:37;;;;;;;1999.90;999.90;;;;;;;14.95;58.08;100144.78;8291779;28;20049;-78
2022/07/17 01:00:38;;;;;;;1999.90;999.90;;;;;;;14.85;58.71;100141.38;8274549;28;20050;-79
2022/07/17 01:04:49;;;;;;;1999.90;999.90;;;;;;;14.80;58.62;100135.34;8277948;28;20080;-80
2022/07/17 01:08:51;;;;;;;1999.90;999.90;;;;;;;14.71;59.02;100140.63;8293537;28;20057;-80
2022/07/17 01:12:52;;;;;;;1999.90;999.90;;;;;;;14.66;59.88;100132.84;8277923;28;20428;-79
2022/07/17 01:16:54;;;;;;;1999.90;999.90;;;;;;;14.62;60.56;100133.75;8290610;28;20637;-79
2022/07/17 01:21:02;;;;;;;1999.90;999.90;;;;;;;14.57;60.42;100137.31;8286728;28;20088;-79
2022/07/17 01:25:04;;;;;;;1999.90;999.90;;;;;;;14.41;60.75;100124.31;8291757;28;20318;-80
2022/07/17 01:29:06;;;;;;;1999.90;999.90;;;;;;;14.33;61.29;100130.47;8292940;28;20038;-80
2022/07/17 01:33:09;;;;;;;1999.90;999.90;;;;;;;14.17;61.79;100127.97;8273458;28;20076;-80
2022/07/17 01:37:11;;;;;;;1999.90;999.90;;;;;;;14.09;62.35;100135.00;8292656;28;20033;-80
2022/07/17 01:41:12;;;;;;;1999.90;999.90;;;;;;;14.01;62.23;100118.53;8292657;28;20406;-79
2022/07/17 01:45:16;;;;;;;1999.90;999.90;;;;;;;13.90;62.24;100125.56;8269057;28;20156;-79
2022/07/17 01:49:17;;;;;;;1999.90;999.90;;;;;;;13.87;62.94;100128.19;8291190;28;20438;-79
2022/07/17 01:53:19;;;;;;;1999.90;999.90;;;;;;;13.83;62.93;100121.25;8291897;28;20038;-79
2022/07/17 01:57:21;;;;;;;1999.90;999.90;;;;;;;13.71;63.39;100114.34;8294054;28;20131;-79
2022/07/17 02:01:23;;;;;;;1999.90;999.90;;;;;;;13.61;63.72;100116.13;8285679;28;20465;-79
2022/07/17 02:05:24;;;;;;;1999.90;999.90;;;;;;;13.60;63.35;100121.38;8296152;28;20100;-79
2022/07/17 02:09:26;;;;;;;1999.90;999.90;;;;;;;13.54;63.72;100124.00;8295979;28;20049;-79
2022/07/17 02:13:28;;;;;;;1999.90;999.90;;;;;;;13.45;64.28;100131.88;8279555;28;20037;-78
2022/07/17 02:17:30;;;;;;;1999.90;999.90;;;;;;;13.34;64.83;100131.94;8278956;28;20046;-78
2022/07/17 02:21:31;;;;;;;1999.90;999.90;;;;;;;13.28;65.05;100137.16;8296004;28;21518;-78
2022/07/17 02:25:33;;;;;;;1999.90;999.90;;;;;;;13.20;64.96;100131.09;8294788;28;20429;-79
2022/07/17 02:29:34;;;;;;;1999.90;999.90;;;;;;;13.15;65.49;100132.84;8294633;28;20038;-78
2022/07/17 02:33:36;;;;;;;1999.90;999.90;;;;;;;13.10;66.18;100138.03;8287369;28;20131;-78
2022/07/17 02:37:39;;;;;;;1999.90;999.90;;;;;;;13.01;66.43;100138.06;8295044;28;20088;-79
2022/07/17 02:41:40;;;;;;;;;;;;;;;12.92;67.66;100130.25;8296215;28;20487;-79
2022/07/17 02:45:42;;;;;;;1999.90;999.90;;;;;;;12.86;67.84;100132.88;8279965;28;19934;-79
2022/07/17 02:49:43;;;;;;;1999.90;999.90;;;;;;;12.79;68.83;100126.81;8269497;28;20057;-79
2022/07/17 02:53:45;;;;;;;1999.90;999.90;;;;;;;12.80;68.97;100127.69;8282579;28;20100;-79
2022/07/17 02:57:47;;;;;;;1999.90;999.90;;;;;;;12.64;69.39;100125.09;8291840;28;20434;-79
2022/07/17 03:01:49;;;;;;;1999.90;999.90;;;;;;;12.57;69.66;100130.34;8287810;28;20046;-78
2022/07/17 03:05:51;;;;;;;1999.90;999.90;;;;;;;12.42;69.08;100132.94;8289958;28;20415;-78
2022/07/17 03:09:52;;;;;;;1999.90;999.90;;;;;;;12.42;70.52;100135.53;8291542;28;20048;-79
2022/07/17 03:13:54;;;;;;;1999.90;999.90;;;;;;;12.47;70.67;100134.66;8286162;28;20066;-79
2022/07/17 03:17:56;;;;;;;1999.90;999.90;;;;;;;12.47;71.10;100132.06;8282980;28;20796;-79
2022/07/17 03:21:57;;;;;;;1999.90;999.90;;;;;;;12.41;70.72;100126.88;8281672;28;20037;-79
2022/07/17 03:25:59;;;;;;;1999.90;999.90;;;;;;;12.36;70.92;100131.19;8273551;28;20046;-79
2022/07/17 03:30:00;;;;;;;1999.90;999.90;;;;;;;12.34;71.27;100125.97;8280589;28;20042;-79
2022/07/17 03:34:02;;;;;;;1999.90;999.90;;;;;;;12.27;71.81;100137.28;8293875;28;20103;-79
2022/07/17 03:38:04;;;;;;;1999.90;999.90;;;;;;;12.16;71.61;100136.38;8294150;28;20502;-79
2022/07/17 03:42:05;;;;;;;1999.90;999.90;;;;;;;12.06;71.46;100137.25;8290360;28;20478;-79
2022/07/17 03:46:07;;;;;;;1999.90;999.90;;;;;;;12.11;71.69;100143.31;8289863;28;20065;-79
2022/07/17 03:50:08;;;;;;;1999.90;999.90;;;;;;;11.99;72.18;100140.69;8292387;28;20049;-77
2022/07/17 03:54:10;;;;;;;1999.90;999.90;;;;;;;11.91;72.71;100145.03;8292857;28;20124;-77
2022/07/17 03:58:13;;;;;;;1999.90;999.90;;;;;;;11.85;72.92;100148.50;8287426;28;20493;-77
2022/07/17 04:02:14;;;;;;;1999.90;999.90;;;;;;;11.82;72.75;100137.19;8293073;28;20052;-77
2022/07/17 04:06:16;;;;;;;1999.90;999.90;;;;;;;11.76;72.92;100151.88;8290931;28;20058;-77
2022/07/17 04:10:17;;;;;;;1999.90;999.90;;;;;;;11.70;73.18;100154.47;8290569;28;20042;-77
2022/07/17 04:14:19;;;;;;;1999.90;999.90;;;;;;;11.68;73.53;100151.00;8291312;28;20053;-77
2022/07/17 04:18:24;;;;;;;1999.90;999.90;;;;;;;11.70;73.89;100157.09;8287724;28;20049;-77
2022/07/17 04:22:26;;;;;;;1999.90;999.90;;;;;;;11.74;74.18;100155.34;8284506;28;20053;-77
2022/07/17 04:26:27;;;;;;;1999.90;999.90;;;;;;;11.85;73.51;100163.19;8291628;28;20088;-77
2022/07/17 04:30:29;;;;;;;1999.90;999.90;;;;;;;11.93;73.45;100159.78;8287852;28;20069;-77
2022/07/17 04:34:32;;;;;;;1999.90;999.90;;;;;;;12.03;73.39;100158.06;8290284;28;20158;-77
2022/07/17 04:38:33;;;;;;;1999.90;999.90;;;;;;;12.10;73.44;100160.69;8274860;28;20057;-77
2022/07/17 04:42:35;;;;;;;1999.90;999.90;;;;;;;12.30;72.68;100165.03;8288780;28;20050;-77
2022/07/17 04:46:36;;;;;;;1999.90;999.90;;;;;;;12.45;72.79;100166.78;8281434;28;20666;-78
2022/07/17 04:50:38;;;;;;;1999.90;999.90;;;;;;;12.54;72.73;100170.25;8290283;28;20048;-77
2022/07/17 04:54:39;;;;;;;1999.90;999.90;;;;;;;12.70;71.55;100161.56;8280586;28;20053;-77
2022/07/17 04:58:41;;;;;;;1999.90;999.90;;;;;;;12.90;71.78;100169.34;8292443;28;20132;-77
2022/07/17 05:02:43;;;;;;;1999.90;999.90;;;;;;;13.06;71.73;100166.72;8291800;28;20129;-77
2022/07/17 05:06:44;;;;;;;1999.90;999.90;;;;;;;13.24;71.29;100170.19;8283424;28;20052;-78
2022/07/17 05:10:46;;;;;;;1999.90;999.90;;;;;;;13.40;70.84;100173.63;8269537;28;20124;-77
2022/07/17 05:14:47;;;;;;;1999.90;999.90;;;;;;;13.70;69.87;100163.97;8292347;28;20125;-78
2022/07/17 05:18:49;;;;;;;1999.90;999.90;;;;;;;13.90;69.54;100162.09;8276822;28;20303;-79
2022/07/17 05:22:51;;;;;;;1999.90;999.90;;;;;;;14.17;68.01;100159.31;8293405;28;20650;-78
2022/07/17 05:26:52;;;;;;;1999.90;999.90;;;;;;;14.44;67.26;100160.91;8291007;28;20045;-78
2022/07/17 05:30:54;;;;;;;1999.90;999.90;;;;;;;14.70;67.07;100159.81;8282205;28;20070;-79
2022/07/17 05:34:56;;;;;;;1999.90;999.90;;;;;;;14.97;66.19;100156.97;8265781;28;20073;-78
2022/07/17 05:38:57;;;;;;;1999.90;999.90;;;;;;;15.25;65.54;100154.91;8287340;28;20314;-78
2022/07/17 05:42:58;;;;;;;1999.90;999.90;;;;;;;15.54;63.66;100162.41;8284846;28;20088;-79
2022/07/17 05:47:00;;;;;;;1999.90;999.90;;;;;;;15.89;63.09;100163.75;8268879;28;20145;-79
2022/07/17 05:51:02;;;;;;;1999.90;999.90;;;;;;;16.31;62.73;100159.63;8274987;28;20037;-80
2022/07/17 05:55:12;;;;;;;1999.90;999.90;;;;;;;16.81;60.07;100169.34;8292784;28;20119;-79
2022/07/17 05:59:14;;;;;;;1999.90;999.90;;;;;;;17.44;58.07;100173.44;8291012;28;20132;-78
2022/07/17 06:03:16;;;;;;;1999.90;999.90;;;;;;;18.08;55.20;100178.22;8288689;28;20041;-79
2022/07/17 06:07:17;;;;;;;1999.90;999.90;;;;;;;18.77;52.49;100171.34;8274207;28;20041;-78
2022/07/17 06:11:19;;;;;;;1999.90;999.90;;;;;;;19.33;49.33;100190.03;8278589;28;20038;-78
2022/07/17 06:15:27;;;;;;;1999.90;999.90;;;;;;;19.90;47.00;100186.66;8284132;28;20045;-78
2022/07/17 06:19:29;;;;;;;1999.90;999.90;;;;;;;20.54;45.52;100191.78;8288684;28;20061;-78
2022/07/17 06:23:31;;;;;;;1999.90;999.90;;;;;;;21.28;43.59;100188.38;8301724;28;20042;-78
2022/07/17 06:27:32;;;;;;;1999.90;999.90;;;;;;;21.88;41.76;100193.19;8286806;28;20046;-79
2022/07/17 06:31:34;;;;;;;1999.90;999.90;;;;;;;22.45;40.06;100183.97;8290211;28;20454;-78
2022/07/17 06:35:35;;;;;;;1999.90;999.90;;;;;;;23.01;39.92;100195.81;8287779;28;20061;-79
2022/07/17 06:39:45;;;;;;;1999.90;999.90;;;;;;;23.47;38.41;100187.53;8287930;28;20048;-78
2022/07/17 06:43:46;;;;;;;1999.90;999.90;;;;;;;23.84;37.22;100172.66;8291095;28;20077;-78
2022/07/17 06:47:48;;;;;;;1999.90;999.90;;;;;;;24.14;35.82;100180.09;8288475;28;20042;-78
2022/07/17 06:51:49;;;;;;;1999.90;999.90;;;;;;;24.40;35.01;100177.06;8286730;28;20074;-78
2022/07/17 06:55:51;;;;;;;1999.90;999.90;;;;;;;24.57;35.10;100181.56;8286791;28;20056;-78
2022/07/17 06:59:52;;;;;;;1999.90;999.90;;;;;;;24.69;34.41;100179.16;8288717;28;20045;-79
2022/07/17 07:03:54;;;;;;;1999.90;999.90;;;;;;;24.68;34.05;100187.22;8279064;28;20127;-79
2022/07/17 07:07:55;;;;;;;1999.90;999.90;;;;;;;24.67;34.09;100189.00;8286255;28;20057;-79
2022/07/17 07:11:57;;;;;;;1999.90;999.90;;;;;;;24.83;34.06;100188.25;8290855;28;20034;-79
2022/07/17 07:15:59;;;;;;;1999.90;999.90;;;;;;;24.99;33.14;100200.72;8290444;28;20050;-79
2022/07/17 07:20:04;;;;;;;1999.90;999.90;;;;;;;25.30;32.74;100188.47;8282200;28;20033;-80
2022/07/17 07:24:05;;;;;;;1999.90;999.90;;;;;;;25.41;32.07;100183.47;8269588;28;20038;-77
2022/07/17 07:28:07;;;;;;;;;;;;;;;25.50;31.24;100188.31;8267516;28;20688;-79
2022/07/17 07:32:08;;;;;;;1999.90;999.90;;;;;;;25.62;31.79;100194.75;8281444;28;20333;-79
2022/07/17 07:36:10;;;;;;;1999.90;999.90;;;;;;;25.83;31.99;100193.63;8282449;28;20470;-79
2022/07/17 07:40:12;;;;;;;;;;;;;;;26.05;31.35;100180.03;8265574;28;20611;-79
2022/07/17 07:44:13;;;;;;;;;;;;;;;26.23;30.89;100183.47;8293454;28;20004;-79
2022/07/17 07:48:29;;;;;;;1999.90;999.90;;;;;;;26.33;30.80;100184.63;8279943;28;20005;-79
2022/07/17 07:52:31;;;;;;;1999.90;999.90;;;;;;;26.36;30.59;100176.50;8283231;28;20080;-78
2022/07/17 07:56:33;;;;;;;1999.90;999.90;;;;;;;26.43;30.04;100171.72;8282107;28;20074;-78
2022/07/17 08:00:35;;;;;;;1999.90;999.90;;;;;;;26.47;30.10;100174.09;8295961;28;20030;-78
2022/07/17 08:04:37;;;;;;;1999.90;999.90;;;;;;;26.62;30.11;100167.03;8297043;28;20048;-78
2022/07/17 08:08:38;;;;;;;;;;;;;;;26.87;30.06;100155.78;8295006;28;20046;-78
2022/07/17 08:12:40;;;;;;;1999.90;999.90;;;;;;;27.08;29.53;100164.31;8295777;28;20020;-78
2022/07/17 08:16:48;;;;;;;1999.90;999.90;;;;;;;27.22;28.71;100177.69;8290798;28;20057;-77
2022/07/17 08:20:50;;;;;;;1999.90;999.90;;;;;;;27.27;29.04;100169.41;8296928;28;20048;-78
2022/07/17 08:24:52;;;;;;;1999.90;999.90;;;;;;;27.39;28.70;100172.19;8294569;28;20045;-78
2022/07/17 08:28:53;;;;;;;;;;;;;;;27.52;29.14;100182.97;8293022;28;20057;-78
2022/07/17 08:32:54;;;;;;;1999.90;999.90;;;;;;;27.73;29.05;100187.94;8288926;28;20004;-78
2022/07/17 08:36:56;;;;;;;1999.90;999.90;;;;;;;27.87;28.38;100180.78;8292679;28;20077;-78
2022/07/17 08:40:58;;;;;;;1999.90;999.90;;;;;;;27.89;28.54;100168.19;8291014;28;20045;-78
2022/07/17 08:45:00;;;;;;;1999.90;999.90;;;;;;;28.13;28.76;100168.44;8291488;28;20045;-77
2022/07/17 08:49:03;;;;;;;1999.90;999.90;;;;;;;28.34;28.46;100170.69;8271759;28;20046;-78
2022/07/17 08:53:05;;;;;;;1999.90;999.90;;;;;;;28.43;27.50;100178.13;8292320;28;20129;-78
2022/07/17 08:57:09;;;;;;;1999.90;999.90;;;;;;;28.44;27.42;100166.47;8291396;28;20042;-78
2022/07/17 09:01:11;;;;;;;1999.90;999.90;;;;;;;28.40;26.91;100164.97;8283871;28;20145;-78
2022/07/17 09:05:12;;;;;;;1999.90;999.90;;;;;;;28.44;27.09;100163.81;8274731;28;20038;-77
2022/07/17 09:09:14;;;;;;;1999.90;999.90;;;;;;;28.50;26.82;100168.72;8284648;28;20448;-77
2022/07/17 09:13:29;;;;;;;1999.90;999.90;;;;;;;28.63;26.40;100158.94;8290233;28;20065;-78
2022/07/17 09:17:33;;;;;;;1999.90;999.90;;;;;;;28.84;25.95;100149.47;8281662;28;20061;-78
2022/07/17 09:21:36;;;;;;;1999.90;999.90;;;;;;;28.99;26.06;100152.09;8290645;28;20134;-79
2022/07/17 09:25:47;;;;;;;1999.90;999.90;;;;;;;29.03;25.69;100161.63;8290204;28;20177;-78
2022/07/17 09:30:12;;;;;;;1999.90;999.90;;;;;;;29.15;24.80;100161.63;8267223;28;20124;-77
2022/07/17 09:34:17;;;;;;;1999.90;999.90;;;;;;;29.13;24.87;100155.53;8284607;28;20052;-78
2022/07/17 09:38:31;;;;;;;1999.90;999.90;;;;;;;29.06;23.70;100145.34;8268243;28;20046;-78
2022/07/17 09:42:33;;;;;;;1999.90;999.90;;;;;;;28.94;24.46;100135.53;8286626;28;20041;-78
2022/07/17 09:46:37;;;;;;;1999.90;999.90;;;;;;;29.09;24.68;100140.69;8285929;28;20042;-78
2022/07/17 09:50:40;;;;;;;1999.90;999.90;;;;;;;29.16;24.58;100141.94;8289462;28;20041;-78
2022/07/17 09:54:41;;;;;;;1999.90;999.90;;;;;;;29.15;23.90;100142.06;8290967;28;20050;-78
2022/07/17 09:58:47;;;;;;;1999.90;999.90;;;;;;;29.32;24.71;100146.25;8287649;28;20078;-78
2022/07/17 10:02:49;;;;;;;1999.90;999.90;;;;;;;29.42;22.79;100153.50;8279879;28;20100;-78
2022/07/17 10:06:51;;;;;;;1999.90;999.90;;;;;;;29.23;22.60;100157.56;8291116;28;20048;-79
2022/07/17 10:10:52;;;;;;;1999.90;999.90;;;;;;;29.22;22.46;100150.50;8287114;28;20133;-79
2022/07/17 10:14:54;;;;;;;1999.90;999.90;;;;;;;29.14;21.37;100143.88;8283420;28;20077;-78
2022/07/17 10:18:57;;;;;;;1999.90;999.90;;;;;;;29.24;23.09;100144.06;8273599;28;20107;-77
2022/07/17 10:23:11;;;;;;;1999.90;999.90;;;;;;;29.38;22.55;100145.78;8269866;28;20129;-77
2022/07/17 10:27:29;;;;;;;1999.90;999.90;;;;;;;29.53;21.95;100146.56;8269185;28;20056;-78
2022/07/17 10:31:32;;;;;;;1999.90;999.90;;;;;;;29.59;22.42;100143.44;8283617;28;20057;-77
2022/07/17 10:35:45;;;;;;;1999.90;999.90;;;;;;;29.65;22.89;100151.06;8274643;28;20068;-77
2022/07/17 10:39:53;;;;;;;1999.90;999.90;;;;;;;29.69;23.37;100150.72;8277406;28;20077;-78
2022/07/17 10:43:54;;;;;;;1999.90;999.90;;;;;;;29.79;23.32;100142.88;8281250;28;20049;-77
2022/07/17 10:47:59;;;;;;;1999.90;999.90;;;;;;;29.95;22.18;100146.16;8279342;28;20061;-78
2022/07/17 10:52:01;;;;;;;1999.90;999.90;;;;;;;29.97;22.47;100152.25;8277597;28;20038;-77
2022/07/17 10:56:06;;;;;;;1999.90;999.90;;;;;;;29.97;21.97;100144.22;8278565;28;20548;-78
2022/07/17 11:00:08;;;;;;;1999.90;999.90;;;;;;;30.07;22.12;100145.31;8264824;28;20421;-78
2022/07/17 11:04:09;;;;;;;1999.90;999.90;;;;;;;30.02;21.90;100146.59;8281787;28;20049;-78
2022/07/17 11:08:12;;;;;;;1999.90;999.90;;;;;;;29.89;21.22;100143.06;8286164;28;20136;-78
2022/07/17 11:12:13;;;;;;;1999.90;999.90;;;;;;;30.15;21.92;100139.38;8263471;28;20069;-78
2022/07/17 11:16:29;;;;;;;1999.90;999.90;;;;;;;30.17;20.65;100145.50;8277674;28;20081;-77
2022/07/17 11:20:32;;;;;;;1999.90;999.90;;;;;;;30.37;21.44;100130.63;8266590;28;20531;-77
2022/07/17 11:24:48;;;;;;;1999.90;999.90;;;;;;;30.58;21.70;100129.00;8285577;28;20156;-77
2022/07/17 11:28:51;;;;;;;1999.90;999.90;;;;;;;30.69;20.74;100133.56;8285200;28;20830;-77
2022/07/17 11:33:01;;;;;;;1999.90;999.90;;;;;;;30.66;20.63;100123.06;8276460;28;20096;-77
2022/07/17 11:37:06;;;;;;;1999.90;999.90;;;;;;;30.78;20.14;100123.97;8275736;28;20069;-77
2022/07/17 11:41:07;;;;;;;1999.90;999.90;;;;;;;30.80;20.23;100122.03;8292381;28;20038;-77
2022/07/17 11:45:10;;;;;;;1999.90;999.90;;;;;;;30.83;19.35;100117.28;8286653;28;20037;-78
2022/07/17 11:49:24;;;;;;;1999.90;999.90;;;;;;;30.78;20.39;100114.09;8286623;28;20049;-77
2022/07/17 11:53:37;;;;;;;1999.90;999.90;;;;;;;31.08;19.96;100118.94;8283607;28;20137;-77
2022/07/17 11:57:44;;;;;;;1999.90;999.90;;;;;;;31.20;20.41;100109.94;8288127;28;20139;-77
2022/07/17 12:01:46;;;;;;;1999.90;999.90;;;;;;;31.20;19.71;100103.72;8284125;28;20089;-77
2022/07/17 12:05:48;;;;;;;1999.90;999.90;;;;;;;31.32;19.14;100102.75;8271229;28;20071;-78
2022/07/17 12:09:50;;;;;;;1999.90;999.90;;;;;;;31.61;20.34;100092.38;8289960;28;20053;-77
2022/07/17 12:13:52;;;;;;;1999.90;999.90;;;;;;;31.75;19.56;100093.97;8291334;28;20508;-77
2022/07/17 12:17:53;;;;;;;1999.90;999.90;;;;;;;31.79;18.59;100088.22;8285041;28;20046;-78
2022/07/17 12:22:01;;;;;;;1999.90;999.90;;;;;;;31.96;18.70;100086.84;8292373;28;20042;-77
2022/07/17 12:26:12;;;;;;;1999.90;999.90;;;;;;;32.01;18.22;100089.16;8289547;28;20105;-77
2022/07/17 12:30:13;;;;;;;1999.90;999.90;;;;;;;31.96;18.49;100091.34;8286391;28;20042;-77
2022/07/17 12:34:15;;;;;;;1999.90;999.90;;;;;;;31.91;18.74;100088.19;8292136;28;20826;-77
2022/07/17 12:38:16;;;;;;;1999.90;999.90;;;;;;;31.83;18.72;100087.00;8275644;28;20046;-77
2022/07/17 12:42:18;;;;;;;1999.90;999.90;;;;;;;32.04;19.29;100084.38;8292850;28;20048;-78
2022/07/17 12:46:19;;;;;;;1999.90;999.90;;;;;;;32.25;18.87;100086.25;8288073;28;20061;-77
2022/07/17 12:50:21;;;;;;;1999.90;999.90;;;;;;;32.22;17.99;100079.31;8289152;28;20100;-78
2022/07/17 12:54:23;;;;;;;1999.90;999.90;;;;;;;32.06;17.49;100079.72;8290428;28;20048;-78
2022/07/17 12:58:25;;;;;;;1999.90;999.90;;;;;;;32.02;18.75;100078.28;8287725;28;20046;-77
2022/07/17 13:02:26;;;;;;;1999.90;999.90;;;;;;;32.25;17.80;100070.13;8286185;28;20066;-76
2022/07/17 13:06:28;;;;;;;1999.90;999.90;;;;;;;32.21;18.44;100077.59;8284625;28;20050;-78
2022/07/17 13:10:31;;;;;;;1999.90;999.90;;;;;;;32.35;18.40;100066.59;8290243;28;20060;-78
2022/07/17 13:14:32;;;;;;;1999.90;999.90;;;;;;;32.19;17.94;100066.13;8272923;28;20046;-78
2022/07/17 13:18:34;;;;;;;1999.90;999.90;;;;;;;32.31;18.52;100067.78;8284256;28;20097;-78
2022/07/17 13:22:35;;;;;;;1999.90;999.90;;;;;;;32.33;17.41;100059.63;8286268;28;20037;-77
2022/07/17 13:27:41;;;;;;;1999.90;999.90;;;;;;;32.31;17.87;100053.50;8757434;22;20157;-76
2022/07/17 13:31:44;;;;;;;1999.90;999.90;;;;;;;32.23;17.71;100038.00;8410100;28;20063;-76
2022/07/17 13:35:47;;;;;;;1999.90;999.90;;;;;;;32.22;17.40;100047.06;8412526;28;20075;-76
2022/07/17 13:39:48;;;;;;;1999.90;999.90;;;;;;;32.38;18.41;100043.97;8405815;28;20040;-76
2022/07/17 13:43:50;;;;;;;1999.90;999.90;;;;;;;32.49;17.89;100051.09;8434033;28;20435;-78
2022/07/17 13:47:52;;;;;;;1999.90;999.90;;;;;;;32.55;17.74;100055.97;8412827;28;20131;-79
2022/07/17 13:51:54;;;;;;;1999.90;999.90;;;;;;;32.62;17.45;100046.38;8415074;28;20044;-78
2022/07/17 13:55:55;;;;;;;1999.90;999.90;;;;;;;32.70;17.56;100039.38;8395147;28;20043;-77
2022/07/17 13:59:57;;;;;;;1999.90;999.90;;;;;;;32.70;17.02;100042.06;8430424;28;20076;-77
2022/07/17 14:04:01;;;;;;;1999.90;999.90;;;;;;;32.59;16.91;100042.13;8404087;28;20062;-75
2022/07/17 14:08:03;;;;;;;1999.90;999.90;;;;;;;32.41;17.60;100043.69;8406669;28;20135;-77
2022/07/17 14:12:05;;;;;;;1999.90;999.90;;;;;;;32.29;17.93;100031.28;8406979;28;20653;-77
2022/07/17 14:16:07;;;;;;;1999.90;999.90;;;;;;;32.54;17.72;100035.44;8428305;28;20515;-76
2022/07/17 14:20:09;;;;;;;1999.90;999.90;;;;;;;32.51;18.43;100027.66;8405874;28;20044;-77
2022/07/17 14:24:11;;;;;;;1999.90;999.90;;;;;;;32.36;17.63;100019.91;8389436;28;20135;-77
2022/07/17 14:28:13;;;;;;;1999.90;999.90;;;;;;;32.31;18.48;100005.97;8403315;28;20056;-76
2022/07/17 14:32:15;;;;;;;1999.90;999.90;;;;;;;32.51;18.29;100008.81;8400891;28;20064;-76
2022/07/17 14:36:16;;;;;;;1999.90;999.90;;;;;;;32.66;19.00;99999.41;8400616;28;20069;-78
2022/07/17 14:40:18;;;;;;;1999.90;999.90;;;;;;;32.71;17.85;100002.56;8368325;28;20044;-76
2022/07/17 14:44:20;;;;;;;1999.90;999.90;;;;;;;32.57;16.97;99995.69;8385515;28;20037;-76
2022/07/17 14:48:21;;;;;;;1999.90;999.90;;;;;;;32.65;18.51;99990.47;8380261;28;20072;-76
2022/07/17 14:52:23;;;;;;;1999.90;999.90;;;;;;;32.81;18.23;99994.56;8374487;28;20118;-76
2022/07/17 14:56:24;;;;;;;1999.90;999.90;;;;;;;32.84;18.79;99991.59;8379685;28;20133;-76
2022/07/17 15:00:26;;;;;;;1999.90;999.90;;;;;;;32.92;18.22;99981.03;8380954;28;20345;-76
2022/07/17 15:04:28;;;;;;;1999.90;999.90;;;;;;;33.06;18.64;99983.38;8365617;28;20168;-76
2022/07/17 15:08:30;;;;;;;1999.90;999.90;;;;;;;33.13;18.00;99972.91;8382171;28;20059;-76
2022/07/17 15:12:32;;;;;;;1999.90;999.90;;;;;;;33.02;17.72;99977.38;8379881;28;20056;-76
2022/07/17 15:16:34;;;;;;;1999.90;999.90;;;;;;;33.21;18.24;99984.66;8381193;28;20061;-76
2022/07/17 15:20:36;;;;;;;1999.90;999.90;;;;;;;33.29;18.14;99976.78;8382267;28;20044;-77
2022/07/17 15:24:43;;;;;;;1999.90;999.90;;;;;;;33.34;18.18;99979.06;8390462;28;20041;-77
2022/07/17 15:28:45;;;;;;;1999.90;999.90;;;;;;;33.26;18.12;99974.38;8364627;28;20436;-76
2022/07/17 15:32:47;;;;;;;1999.90;999.90;;;;;;;33.35;18.11;99965.47;8401396;28;20044;-77
2022/07/17 15:36:49;;;;;;;1999.90;999.90;;;;;;;33.36;18.28;99955.56;8377099;28;20036;-77
2022/07/17 15:40:50;;;;;;;1999.90;999.90;;;;;;;33.47;18.26;99960.84;8376397;28;20048;-76
2022/07/17 15:44:52;;;;;;;1999.90;999.90;;;;;;;33.57;17.86;99959.00;8361519;28;20492;-76
2022/07/17 15:49:00;;;;;;;1999.90;999.90;;;;;;;33.55;17.36;99957.44;8371536;28;20444;-76
2022/07/17 15:53:02;;;;;;;1999.90;999.90;;;;;;;33.33;17.24;99959.38;8380091;28;20051;-76
2022/07/17 15:57:04;;;;;;;1999.90;999.90;;;;;;;33.42;17.64;99952.34;8382215;28;20044;-76
2022/07/17 16:01:05;;;;;;;1999.90;999.90;;;;;;;33.47;18.11;99949.22;8372647;28;20084;-76
2022/07/17 16:05:07;;;;;;;1999.90;999.90;;;;;;;33.46;17.70;99939.44;8382926;28;20074;-76
2022/07/17 16:09:13;;;;;;;1999.90;999.90;;;;;;;33.37;17.54;99937.56;8377869;28;20352;-76
2022/07/17 16:13:15;;;;;;;1999.90;999.90;;;;;;;33.25;16.79;99934.13;8404330;28;20151;-76
2022/07/17 16:17:17;;;;;;;1999.90;999.90;;;;;;;33.21;17.40;99927.28;8379119;28;20092;-76
2022/07/17 16:21:18;;;;;;;1999.90;999.90;;;;;;;33.33;17.96;99921.69;8382304;28;20040;-76
2022/07/17 16:25:21;;;;;;;1999.90;999.90;;;;;;;33.40;17.76;99923.84;8399223;28;20086;-77
2022/07/17 16:29:23;;;;;;;1999.90;999.90;;;;;;;33.46;17.48;99920.59;8381290;28;20048;-77
2022/07/17 16:33:24;;;;;;;1999.90;999.90;;;;;;;33.18;18.38;99914.97;8372017;28;20056;-76
2022/07/17 16:37:25;;;;;;;1999.90;999.90;;;;;;;32.95;18.13;99911.66;8377712;28;20041;-76
2022/07/17 16:41:27;;;;;;;1999.90;999.90;;;;;;;32.40;18.84;99910.25;8361193;28;20162;-76
2022/07/17 16:45:28;;;;;;;1999.90;999.90;;;;;;;31.90;17.95;99901.97;8373264;28;20064;-76
2022/07/17 16:49:30;;;;;;;1999.90;999.90;;;;;;;31.38;19.69;99900.09;8376823;28;20043;-76
2022/07/17 16:53:31;;;;;;;1999.90;999.90;;;;;;;31.02;20.55;99894.03;8391074;28;20041;-76
2022/07/17 16:57:33;;;;;;;1999.90;999.90;;;;;;;30.75;20.75;99899.81;8380093;28;20047;-76
2022/07/17 17:01:35;;;;;;;1999.90;999.90;;;;;;;30.45;20.97;99900.38;8371855;28;20159;-76
2022/07/17 17:05:37;;;;;;;1999.90;999.90;;;;;;;30.22;21.35;99894.16;8391348;28;20127;-76
2022/07/17 17:09:39;;;;;;;1999.90;999.90;;;;;;;30.02;21.64;99895.66;8377923;28;20048;-76
2022/07/17 17:13:42;;;;;;;1999.90;999.90;;;;;;;29.81;21.87;99881.25;8376931;28;20781;-76
2022/07/17 17:17:43;;;;;;;1999.90;999.90;;;;;;;29.61;21.67;99877.38;8373592;28;20401;-76
2022/07/17 17:21:45;;;;;;;1999.90;999.90;;;;;;;29.47;22.33;99880.25;8379472;28;20072;-76
2022/07/17 17:25:47;;;;;;;1999.90;999.90;;;;;;;29.34;21.62;99882.94;8372774;28;20036;-76
2022/07/17 17:29:48;;;;;;;1999.90;999.90;;;;;;;29.22;23.46;99874.97;8374451;28;20799;-75
2022/07/17 17:33:51;;;;;;;1999.90;999.90;;;;;;;29.03;27.94;99886.16;8370826;28;20052;-76
2022/07/17 17:37:52;;;;;;;1999.90;999.90;;;;;;;28.73;28.05;99890.06;8372842;28;20041;-75
2022/07/17 17:41:54;;;;;;;;;;;;;;;28.40;30.66;99895.13;8369720;28;20131;-76
2022/07/17 17:45:57;;;;;;;;;;;;;;;28.21;28.21;99893.72;8363941;28;19975;-76
2022/07/17 17:49:59;;;;;;;1999.90;999.90;;;;;;;28.07;28.91;99891.13;8396206;28;19924;-76
2022/07/17 17:54:00;;;;;;;;;;;;;;;27.91;28.33;99893.13;8378335;28;20045;-75